Time;durP1;ratioP1;P1;durP2;ratioP2;P2;SDS_P1;SDS_P2;PMS_P1;PMS_P2;Temp;Humidity;BMP_temperature;BMP_pressure;BME280_temperature;BME280_humidity;BME280_pressure;Samples;Min_cycle;Max_cycle;Signal;HPM_P1;HPM_P2
2023/06/27 00:00:13;;;;;;;4.43;1.13;;;14.70;99.90;;;;;;5016341;28;20659;-82
2023/06/27 00:02:46;;;;;;;2.92;0.88;;;14.80;99.90;;;;;;5015183;28;20230;-80
2023/06/27 00:05:17;;;;;;;2.13;0.80;;;14.80;99.90;;;;;;5014137;28;20226;-81
2023/06/27 00:07:48;;;;;;;3.00;0.93;;;14.90;99.90;;;;;;5012499;28;20191;-79
2023/06/27 00:10:18;;;;;;;3.10;0.88;;;15.00;99.90;;;;;;5016168;28;20639;-80
2023/06/27 00:12:52;;;;;;;3.13;1.00;;;15.10;99.90;;;;;;5016032;28;20191;-80
2023/06/27 00:15:26;;;;;;;3.42;0.82;;;15.10;99.90;;;;;;5015122;28;20602;-80
2023/06/27 00:17:58;;;;;;;3.13;0.88;;;15.20;99.90;;;;;;5013597;28;20541;-80
2023/06/27 00:20:34;;;;;;;3.95;0.90;;;15.20;99.90;;;;;;5015705;28;20235;-80
2023/06/27 00:23:19;;;;;;;4.28;1.08;;;15.30;99.90;;;;;;5010443;28;20245;-80
2023/06/27 00:25:50;;;;;;;3.38;0.88;;;15.40;99.90;;;;;;5015026;28;20202;-82
2023/06/27 00:28:21;;;;;;;3.53;0.90;;;15.50;99.90;;;;;;5013608;28;20230;-81
2023/06/27 00:30:54;;;;;;;2.55;0.90;;;15.50;99.90;;;;;;5010785;28;20209;-81
2023/06/27 00:33:24;;;;;;;5.93;1.05;;;15.50;99.90;;;;;;5011164;28;20731;-81
2023/06/27 00:35:55;;;;;;;3.85;1.20;;;15.60;99.90;;;;;;5015465;28;20562;-81
2023/06/27 00:38:26;;;;;;;3.90;0.90;;;15.70;99.90;;;;;;5012933;28;20195;-81
2023/06/27 00:40:57;;;;;;;2.50;0.80;;;15.70;99.90;;;;;;5010677;28;20201;-79
2023/06/27 00:43:29;;;;;;;3.50;0.90;;;15.70;99.90;;;;;;5008286;28;20201;-77
2023/06/27 00:46:04;;;;;;;4.35;0.95;;;15.80;99.90;;;;;;5013833;28;20195;-81
2023/06/27 00:48:35;;;;;;;3.97;1.30;;;15.80;99.90;;;;;;5015384;28;20198;-80
2023/06/27 00:51:07;;;;;;;2.65;0.80;;;15.80;99.90;;;;;;5007848;28;21285;-81
2023/06/27 00:53:38;;;;;;;4.03;1.10;;;15.90;99.90;;;;;;5014575;28;20245;-80
2023/06/27 00:56:09;;;;;;;5.85;1.30;;;15.90;99.90;;;;;;5015256;28;20197;-80
2023/06/27 00:58:40;;;;;;;2.67;0.85;;;15.90;99.90;;;;;;5015329;28;20195;-82
2023/06/27 01:01:13;;;;;;;7.57;1.27;;;15.80;99.90;;;;;;5011925;28;20561;-81
2023/06/27 01:03:44;;;;;;;4.88;1.00;;;16.00;99.90;;;;;;5007074;28;20286;-78
2023/06/27 01:06:20;;;;;;;4.55;0.90;;;16.10;99.90;;;;;;5013043;28;20191;-78
2023/06/27 01:08:57;;;;;;;2.90;0.75;;;16.30;99.90;;;;;;4996539;28;20209;-77
2023/06/27 01:11:33;;;;;;;2.58;0.90;;;16.40;99.90;;;;;;5014961;28;20195;-77
2023/06/27 01:14:06;;;;;;;2.55;0.70;;;16.40;99.90;;;;;;5006911;28;20260;-78
2023/06/27 01:16:42;;;;;;;4.63;0.77;;;16.40;99.90;;;;;;5010369;28;20205;-77
2023/06/27 01:19:13;;;;;;;4.90;0.70;;;16.40;99.90;;;;;;5010761;28;20215;-77
2023/06/27 01:21:46;;;;;;;5.78;1.10;;;16.40;99.90;;;;;;5014592;28;20644;-77
2023/06/27 01:24:20;;;;;;;1.55;0.75;;;16.40;99.90;;;;;;5009361;28;20203;-77
2023/06/27 01:26:51;;;;;;;3.17;0.85;;;16.50;99.90;;;;;;5014656;28;20197;-77
2023/06/27 01:29:21;;;;;;;2.05;0.90;;;16.60;99.90;;;;;;5014522;28;20191;-80
2023/06/27 01:31:58;;;;;;;2.20;0.63;;;16.70;99.90;;;;;;5013951;28;20214;-79
2023/06/27 01:34:33;;;;;;;2.22;0.80;;;16.80;99.90;;;;;;5013705;28;20214;-78
2023/06/27 01:37:10;;;;;;;6.22;1.00;;;16.90;99.90;;;;;;5014480;28;20233;-78
2023/06/27 01:39:47;;;;;;;3.35;0.77;;;17.00;99.90;;;;;;5014439;28;20190;-77
2023/06/27 01:42:20;;;;;;;2.83;0.95;;;17.10;99.90;;;;;;5011940;28;20202;-79
2023/06/27 01:44:51;;;;;;;3.78;0.93;;;17.00;99.90;;;;;;5014115;28;20191;-78
2023/06/27 01:47:24;;;;;;;3.85;0.73;;;17.00;99.90;;;;;;5014284;28;20662;-79
2023/06/27 01:49:55;;;;;;;4.13;0.80;;;17.20;99.90;;;;;;5014144;28;20187;-79
2023/06/27 01:52:26;;;;;;;3.10;0.60;;;17.20;99.90;;;;;;5012059;28;20199;-78
2023/06/27 01:54:59;;;;;;;1.88;0.70;;;17.30;99.90;;;;;;5008697;28;20215;-80
2023/06/27 01:57:30;;;;;;;4.38;0.82;;;17.50;99.90;;;;;;5010371;28;20659;-78
2023/06/27 02:00:01;;;;;;;6.18;1.42;;;17.60;99.90;;;;;;5011674;28;20194;-78
2023/06/27 02:02:31;;;;;;;5.00;1.30;;;17.60;99.90;;;;;;5014134;28;20191;-81
2023/06/27 02:05:02;;;;;;;4.30;1.08;;;17.60;99.90;;;;;;5014043;28;20206;-82
2023/06/27 02:07:33;;;;;;;2.47;1.05;;;17.70;99.90;;;;;;5009017;28;20276;-79
2023/06/27 02:10:06;;;;;;;5.70;0.98;;;17.80;99.90;;;;;;5005835;28;20214;-79
2023/06/27 02:12:37;;;;;;;2.55;0.95;;;17.90;99.90;;;;;;5010197;28;20230;-78
2023/06/27 02:15:08;;;;;;;1.08;0.70;;;17.90;99.90;;;;;;5012844;28;20685;-80
2023/06/27 02:17:39;;;;;;;4.25;1.48;;;18.00;99.90;;;;;;5011412;28;20200;-80
2023/06/27 02:20:11;;;;;;;3.08;1.02;;;17.90;99.90;;;;;;5012432;28;20238;-80
2023/06/27 02:22:42;;;;;;;3.53;1.10;;;17.90;99.90;;;;;;5011657;28;20210;-82
2023/06/27 02:25:15;;;;;;;3.10;1.00;;;18.00;99.90;;;;;;5013769;28;20612;-81
2023/06/27 02:27:46;;;;;;;1.95;0.70;;;18.00;99.90;;;;;;5012652;28;20205;-80
2023/06/27 02:30:17;;;;;;;2.30;0.70;;;18.10;99.90;;;;;;5013799;28;20195;-80
2023/06/27 02:32:47;;;;;;;1.92;0.63;;;18.10;99.90;;;;;;5011542;28;20221;-80
2023/06/27 02:35:18;;;;;;;4.07;0.70;;;18.10;99.90;;;;;;5012694;28;20228;-79
2023/06/27 02:37:49;;;;;;;2.20;0.63;;;18.00;99.90;;;;;;5012899;28;20198;-79
2023/06/27 02:40:22;;;;;;;2.60;0.60;;;17.90;99.90;;;;;;5011886;28;20222;-80
2023/06/27 02:42:52;;;;;;;3.35;0.60;;;17.90;99.90;;;;;;5011700;28;20202;-82
2023/06/27 02:45:23;;;;;;;2.00;0.50;;;17.80;99.90;;;;;;5011563;28;20206;-80
2023/06/27 02:47:54;;;;;;;1.52;0.40;;;17.80;99.90;;;;;;5013513;28;20191;-82
2023/06/27 02:50:25;;;;;;;1.17;0.45;;;17.70;99.90;;;;;;5013489;28;20199;-81
2023/06/27 02:52:56;;;;;;;1.15;0.52;;;17.70;99.90;;;;;;5008917;28;20209;-82
2023/06/27 02:55:28;;;;;;;2.95;0.70;;;17.70;99.90;;;;;;5012764;28;20584;-82
2023/06/27 02:57:59;;;;;;;3.17;0.70;;;17.80;99.90;;;;;;5013225;28;20589;-80
2023/06/27 03:00:30;;;;;;;1.70;0.60;;;17.80;99.90;;;;;;5016933;28;20635;-82
2023/06/27 03:03:01;;;;;;;2.28;0.70;;;17.70;99.90;;;;;;5015073;28;20199;-83
2023/06/27 03:05:31;;;;;;;2.22;0.55;;;17.60;99.90;;;;;;5013954;28;20206;-82
2023/06/27 03:08:02;;;;;;;1.17;0.55;;;17.70;99.90;;;;;;5013355;28;20199;-82
2023/06/27 03:10:35;;;;;;;1.98;0.60;;;17.80;99.90;;;;;;5013284;28;20201;-81
2023/06/27 03:13:06;;;;;;;4.05;0.43;;;17.90;99.90;;;;;;5011339;28;20608;-82
2023/06/27 03:15:36;;;;;;;1.15;0.40;;;18.00;99.90;;;;;;5011470;28;20700;-82
2023/06/27 03:18:07;;;;;;;1.60;0.50;;;18.00;99.90;;;;;;5013211;28;20213;-82
2023/06/27 03:20:38;;;;;;;4.57;0.70;;;17.90;99.90;;;;;;5013554;28;20234;-78
2023/06/27 03:23:09;;;;;;;0.68;0.40;;;17.80;99.90;;;;;;5008664;28;20207;-78
2023/06/27 03:25:41;;;;;;;3.50;0.60;;;17.90;99.90;;;;;;5013409;28;20195;-76
2023/06/27 03:28:12;;;;;;;2.78;0.82;;;18.00;99.90;;;;;;5017683;28;20294;-78
2023/06/27 03:30:43;;;;;;;1.92;0.80;;;18.10;99.90;;;;;;5015241;28;20213;-77
2023/06/27 03:33:14;;;;;;;1.92;0.50;;;18.10;99.90;;;;;;5014477;28;20215;-78
2023/06/27 03:35:44;;;;;;;2.33;0.73;;;18.10;99.90;;;;;;5016653;28;20218;-78
2023/06/27 03:38:15;;;;;;;1.55;0.40;;;18.00;99.90;;;;;;5016742;28;20195;-78
2023/06/27 03:40:48;;;;;;;1.13;0.63;;;17.90;99.90;;;;;;5016602;28;20195;-79
2023/06/27 03:43:19;;;;;;;2.88;0.75;;;18.00;99.90;;;;;;5015917;28;20205;-78
2023/06/27 03:45:49;;;;;;;1.52;0.70;;;18.10;99.90;;;;;;5016549;28;20195;-79
2023/06/27 03:48:20;;;;;;;2.33;0.60;;;18.00;99.90;;;;;;5014736;28;20241;-79
2023/06/27 03:50:51;;;;;;;2.05;0.65;;;17.90;99.90;;;;;;5014380;28;20199;-79
2023/06/27 03:53:22;;;;;;;2.30;0.50;;;17.90;99.90;;;;;;5016424;28;20286;-77
2023/06/27 03:55:54;;;;;;;1.50;0.40;;;17.90;99.90;;;;;;5016077;28;20222;-77
2023/06/27 03:58:25;;;;;;;1.60;0.52;;;18.00;99.90;;;;;;5014620;28;20558;-78
2023/06/27 04:00:58;;;;;;;1.50;0.50;;;18.00;99.90;;;;;;5015658;28;20535;-78
2023/06/27 04:03:28;;;;;;;2.30;0.50;;;18.10;99.90;;;;;;5016272;28;20187;-79
2023/06/27 04:05:59;;;;;;;1.90;0.50;;;18.30;99.90;;;;;;5016190;28;20190;-78
2023/06/27 04:08:30;;;;;;;4.60;0.90;;;18.40;99.90;;;;;;5015495;28;20198;-78
2023/06/27 04:11:02;;;;;;;2.47;0.57;;;18.40;99.90;;;;;;5016017;28;20198;-77
2023/06/27 04:13:33;;;;;;;2.78;0.60;;;18.50;99.90;;;;;;5010696;28;20773;-79
2023/06/27 04:16:04;;;;;;;2.03;0.63;;;18.40;99.90;;;;;;5015913;28;20792;-78
2023/06/27 04:18:35;;;;;;;1.85;0.70;;;18.30;99.90;;;;;;5015998;28;20238;-78
2023/06/27 04:21:06;;;;;;;1.42;0.40;;;18.30;99.90;;;;;;5013535;28;20226;-78
2023/06/27 04:23:37;;;;;;;5.22;0.90;;;18.20;99.90;;;;;;5012490;28;20191;-77
2023/06/27 04:26:15;;;;;;;2.33;0.63;;;18.20;99.90;;;;;;5015768;28;20197;-77
2023/06/27 04:28:47;;;;;;;2.85;0.60;;;18.20;99.90;;;;;;5015758;28;20289;-78
2023/06/27 04:31:17;;;;;;;1.60;0.50;;;18.30;99.90;;;;;;5013479;28;20202;-78
2023/06/27 04:33:48;;;;;;;2.35;0.82;;;18.30;99.90;;;;;;5015772;28;20197;-78
2023/06/27 04:36:20;;;;;;;1.73;0.63;;;18.20;99.90;;;;;;5015512;28;20223;-77
2023/06/27 04:38:50;;;;;;;3.03;0.95;;;18.10;99.90;;;;;;5014362;28;20226;-79
2023/06/27 04:41:23;;;;;;;1.55;0.43;;;18.10;99.90;;;;;;5014070;28;20222;-78
2023/06/27 04:43:56;;;;;;;1.00;0.68;;;18.00;99.90;;;;;;5013835;28;20225;-78
2023/06/27 04:46:28;;;;;;;1.48;0.60;;;18.10;99.90;;;;;;5015567;28;20559;-77
2023/06/27 04:48:59;;;;;;;2.17;0.70;;;18.10;99.90;;;;;;5015743;28;20635;-77
2023/06/27 04:51:31;;;;;;;3.17;0.70;;;18.10;99.90;;;;;;5014698;28;20194;-78
2023/06/27 04:54:02;;;;;;;2.22;0.65;;;18.00;99.90;;;;;;5014406;28;20199;-79
2023/06/27 04:56:35;;;;;;;3.58;0.98;;;18.10;99.90;;;;;;5015275;28;20702;-80
2023/06/27 04:59:05;;;;;;;3.08;0.70;;;18.10;99.90;;;;;;5013008;28;20203;-78
2023/06/27 05:01:36;;;;;;;1.50;0.80;;;18.20;99.90;;;;;;5013375;28;20202;-77
2023/06/27 05:04:07;;;;;;;5.22;0.60;;;18.20;99.90;;;;;;5015147;28;20191;-78
2023/06/27 05:06:38;;;;;;;2.05;0.43;;;18.20;99.90;;;;;;5014964;28;20201;-79
2023/06/27 05:09:09;;;;;;;1.25;0.50;;;18.20;99.90;;;;;;5015046;28;20213;-78
2023/06/27 05:11:43;;;;;;;2.22;0.60;;;18.20;99.90;;;;;;5012840;28;20195;-79
2023/06/27 05:14:14;;;;;;;2.08;0.50;;;18.10;99.90;;;;;;5013982;28;20395;-79
2023/06/27 05:16:45;;;;;;;1.20;0.52;;;18.00;99.90;;;;;;5012803;28;20218;-79
2023/06/27 05:19:16;;;;;;;2.30;0.65;;;18.00;99.90;;;;;;5012638;28;20278;-78
2023/06/27 05:21:47;;;;;;;1.98;0.57;;;17.90;99.90;;;;;;5013851;28;20191;-79
2023/06/27 05:24:17;;;;;;;1.27;0.50;;;17.80;99.90;;;;;;4995210;28;20192;-82
2023/06/27 05:26:50;;;;;;;5.00;0.70;;;17.80;99.90;;;;;;5009392;28;20208;-82
2023/06/27 05:29:21;;;;;;;1.45;0.63;;;17.80;99.90;;;;;;5017432;28;20187;-81
2023/06/27 05:31:52;;;;;;;1.42;0.60;;;17.90;99.90;;;;;;5015488;28;20191;-82
2023/06/27 05:34:22;;;;;;;1.77;0.60;;;17.90;99.90;;;;;;5013950;28;20194;-81
2023/06/27 05:36:53;;;;;;;0.88;0.47;;;17.90;99.90;;;;;;5014384;28;20755;-82
2023/06/27 05:39:24;;;;;;;1.23;0.50;;;17.80;99.90;;;;;;5012762;28;20738;-81
2023/06/27 05:41:57;;;;;;;1.45;0.60;;;17.80;99.90;;;;;;5014568;28;20659;-82
2023/06/27 05:44:27;;;;;;;2.78;0.90;;;17.90;99.90;;;;;;5012679;28;20207;-79
2023/06/27 05:46:58;;;;;;;1.92;0.50;;;17.90;99.90;;;;;;5013632;28;20203;-84
2023/06/27 05:49:29;;;;;;;4.10;0.70;;;17.90;99.90;;;;;;5010928;28;20654;-82
2023/06/27 05:52:00;;;;;;;2.03;0.60;;;17.80;99.90;;;;;;5014195;28;20197;-84
2023/06/27 05:54:30;;;;;;;2.67;0.70;;;17.80;99.90;;;;;;5014273;28;20195;-82
2023/06/27 05:57:03;;;;;;;1.17;0.60;;;17.70;99.90;;;;;;5012480;28;20684;-82
2023/06/27 05:59:34;;;;;;;3.97;0.80;;;17.50;99.90;;;;;;5012808;28;20195;-82
2023/06/27 06:02:05;;;;;;;1.83;0.75;;;17.40;99.90;;;;;;5014197;28;20191;-82
2023/06/27 06:04:36;;;;;;;3.55;0.82;;;17.30;99.90;;;;;;5014141;28;20643;-82
2023/06/27 06:07:07;;;;;;;3.88;0.70;;;17.30;99.90;;;;;;5014176;28;20195;-81
2023/06/27 06:09:37;;;;;;;2.40;0.70;;;17.20;99.90;;;;;;5011883;28;20209;-82
2023/06/27 06:12:11;;;;;;;1.77;0.60;;;17.10;99.90;;;;;;5014294;28;20246;-82
2023/06/27 06:14:42;;;;;;;2.00;0.52;;;17.00;99.90;;;;;;5013046;28;20233;-83
2023/06/27 06:17:13;;;;;;;2.58;0.68;;;16.90;99.90;;;;;;5013124;28;20756;-82
2023/06/27 06:19:44;;;;;;;2.30;0.60;;;16.90;99.90;;;;;;5011259;28;20237;-83
2023/06/27 06:22:15;;;;;;;3.33;0.80;;;16.80;99.90;;;;;;5011252;28;20203;-81
2023/06/27 06:24:45;;;;;;;3.55;0.70;;;16.70;99.90;;;;;;5009077;28;20569;-81
2023/06/27 06:27:18;;;;;;;2.10;0.80;;;16.70;99.90;;;;;;5005107;28;20766;-82
2023/06/27 06:29:49;;;;;;;2.42;0.77;;;16.70;99.90;;;;;;5005751;28;20195;-81
2023/06/27 06:32:20;;;;;;;1.92;0.77;;;16.60;99.90;;;;;;5015711;28;20199;-80
2023/06/27 06:34:50;;;;;;;2.53;0.68;;;16.60;99.90;;;;;;5001154;28;20659;-81
2023/06/27 06:37:21;;;;;;;2.30;0.70;;;16.50;99.90;;;;;;5004255;28;20302;-82
2023/06/27 06:39:52;;;;;;;1.83;0.80;;;16.40;99.90;;;;;;5005239;28;20206;-82
2023/06/27 06:42:25;;;;;;;2.85;0.90;;;16.40;99.90;;;;;;5017742;28;20202;-82
2023/06/27 06:44:55;;;;;;;2.78;1.00;;;16.30;99.90;;;;;;5010187;28;20216;-82
2023/06/27 06:47:26;;;;;;;2.50;1.00;;;16.30;99.90;;;;;;5005618;28;20682;-82
2023/06/27 06:49:57;;;;;;;4.43;0.95;;;16.20;99.90;;;;;;4993810;28;20194;-82
2023/06/27 06:52:28;;;;;;;3.33;0.90;;;16.20;99.90;;;;;;5000057;28;20195;-82
2023/06/27 06:54:59;;;;;;;2.13;0.90;;;16.20;99.90;;;;;;5012881;28;20221;-81
2023/06/27 06:57:31;;;;;;;4.32;0.90;;;16.10;99.90;;;;;;5012498;28;20222;-82
2023/06/27 07:00:03;;;;;;;4.25;1.20;;;16.10;99.90;;;;;;5012579;28;20677;-81
2023/06/27 07:02:34;;;;;;;5.00;1.20;;;16.10;99.90;;;;;;5007298;28;20205;-82
2023/06/27 07:05:05;;;;;;;3.85;1.50;;;16.00;99.90;;;;;;5032962;28;20565;-80
2023/06/27 07:07:35;;;;;;;4.90;1.80;;;15.90;99.90;;;;;;5029813;28;20198;-82
2023/06/27 07:10:06;;;;;;;3.40;1.88;;;15.90;99.90;;;;;;5019115;28;20199;-81
2023/06/27 07:12:40;;;;;;;3.85;1.75;;;15.90;99.90;;;;;;5004931;28;20211;-82
2023/06/27 07:15:11;;;;;;;3.63;1.77;;;15.80;99.90;;;;;;5010797;28;20219;-84
2023/06/27 07:17:42;;;;;;;3.80;1.98;;;15.70;99.90;;;;;;5011146;28;20305;-83
2023/06/27 07:20:15;;;;;;;5.45;2.20;;;15.70;99.90;;;;;;5027691;28;20230;-83
2023/06/27 07:22:46;;;;;;;3.47;1.88;;;15.70;99.90;;;;;;5015929;28;20203;-83
2023/06/27 07:25:17;;;;;;;4.30;1.88;;;15.70;99.90;;;;;;5010316;28;20197;-83
2023/06/27 07:27:50;;;;;;;2.92;1.52;;;15.60;99.90;;;;;;5013358;28;20196;-83
2023/06/27 07:30:20;;;;;;;3.08;1.60;;;15.60;99.90;;;;;;5013884;28;20199;-83
2023/06/27 07:32:51;;;;;;;5.22;2.00;;;15.50;99.90;;;;;;5014059;28;20198;-83
2023/06/27 07:35:22;;;;;;;5.80;1.83;;;15.50;99.90;;;;;;5013985;28;20202;-83
2023/06/27 07:37:53;;;;;;;3.35;1.70;;;15.40;99.90;;;;;;5016097;28;20274;-82
2023/06/27 07:40:23;;;;;;;3.78;1.70;;;15.40;99.90;;;;;;5015887;28;20195;-81
2023/06/27 07:42:56;;;;;;;4.07;2.10;;;15.40;99.90;;;;;;5015969;28;20195;-82
2023/06/27 07:45:27;;;;;;;5.60;1.90;;;15.40;99.90;;;;;;5011997;28;20199;-82
2023/06/27 07:47:58;;;;;;;4.78;1.70;;;15.30;99.90;;;;;;5014002;28;20202;-82
2023/06/27 07:50:29;;;;;;;4.53;1.88;;;15.30;99.90;;;;;;5015507;28;20195;-82
2023/06/27 07:52:59;;;;;;;4.03;1.88;;;15.30;99.90;;;;;;5013481;28;20199;-83
2023/06/27 07:55:30;;;;;;;3.00;1.85;;;15.30;99.90;;;;;;5014083;28;20202;-81
2023/06/27 07:58:03;;;;;;;4.32;2.20;;;15.30;99.90;;;;;;5015885;28;20242;-82
2023/06/27 08:00:34;;;;;;;3.80;2.10;;;15.20;99.90;;;;;;5010735;28;20636;-81
2023/06/27 08:03:05;;;;;;;5.93;2.25;;;15.20;99.90;;;;;;5011472;28;20195;-83
2023/06/27 08:05:38;;;;;;;4.43;2.40;;;15.20;99.90;;;;;;5015605;28;20207;-81
2023/06/27 08:08:09;;;;;;;6.07;2.55;;;15.20;99.90;;;;;;5015217;28;20199;-81
2023/06/27 08:10:41;;;;;;;3.75;1.98;;;15.10;99.90;;;;;;5009903;28;20206;-80
2023/06/27 08:13:13;;;;;;;4.13;1.90;;;15.10;99.90;;;;;;5013407;28;20213;-81
2023/06/27 08:15:44;;;;;;;6.28;1.85;;;15.10;99.90;;;;;;5007807;28;20246;-81
2023/06/27 08:18:15;;;;;;;3.90;1.70;;;15.10;99.90;;;;;;5013843;28;20246;-81
2023/06/27 08:20:46;;;;;;;4.03;1.80;;;15.00;99.90;;;;;;5015777;28;20249;-82
2023/06/27 08:23:17;;;;;;;4.35;1.90;;;15.00;99.90;;;;;;5013372;28;20214;-81
2023/06/27 08:25:48;;;;;;;4.75;1.73;;;15.00;99.90;;;;;;5016134;28;20282;-80
2023/06/27 08:28:20;;;;;;;7.20;2.10;;;14.90;99.90;;;;;;5015757;28;20191;-82
2023/06/27 08:30:51;;;;;;;7.43;2.30;;;14.80;99.90;;;;;;5015564;28;20565;-81
2023/06/27 08:33:22;;;;;;;6.95;1.90;;;14.70;99.90;;;;;;5010054;28;20651;-81
2023/06/27 08:35:53;;;;;;;4.80;1.88;;;14.50;99.90;;;;;;5015485;28;20207;-81
2023/06/27 08:38:24;;;;;;;4.25;2.00;;;14.40;99.90;;;;;;5007982;28;20561;-81
2023/06/27 08:40:57;;;;;;;6.07;2.38;;;14.30;99.90;;;;;;5005034;28;20277;-81
2023/06/27 08:43:30;;;;;;;4.13;2.05;;;14.30;99.90;;;;;;5006203;28;20732;-81
2023/06/27 08:46:02;;;;;;;4.38;2.30;;;14.20;99.90;;;;;;5013028;28;20677;-82
2023/06/27 08:48:32;;;;;;;8.25;2.90;;;14.10;99.90;;;;;;5017022;28;20666;-82
2023/06/27 08:51:04;;;;;;;6.22;3.15;;;14.00;99.90;;;;;;5016986;28;20681;-81
2023/06/27 08:53:38;;;;;;;6.35;2.78;;;13.90;99.90;;;;;;5014507;28;20195;-82
2023/06/27 08:56:12;;;;;;;5.82;3.17;;;13.90;99.90;;;;;;5009894;28;20206;-82
2023/06/27 08:58:48;;;;;;;6.90;2.90;;;13.80;99.90;;;;;;5005298;28;20253;-81
2023/06/27 09:01:18;;;;;;;10.20;4.15;;;13.80;99.90;;;;;;5015111;28;20194;-81
2023/06/27 09:03:49;;;;;;;10.10;3.58;;;13.70;99.90;;;;;;5014616;28;20198;-81
2023/06/27 09:06:21;;;;;;;7.55;4.00;;;13.70;99.90;;;;;;5009253;28;20213;-83
2023/06/27 09:08:53;;;;;;;6.47;4.28;;;13.70;99.90;;;;;;5012648;28;20207;-83
2023/06/27 09:11:24;;;;;;;6.13;3.70;;;13.70;99.90;;;;;;5011211;28;20291;-81
2023/06/27 09:13:57;;;;;;;6.22;3.53;;;13.70;99.90;;;;;;5012203;28;20229;-83
2023/06/27 09:16:28;;;;;;;5.72;3.38;;;13.80;99.90;;;;;;5008014;28;20222;-83
2023/06/27 09:18:59;;;;;;;7.50;3.75;;;13.80;99.90;;;;;;5014206;28;20634;-83
2023/06/27 09:21:34;;;;;;;6.68;3.25;;;13.80;99.90;;;;;;5013631;28;20242;-83
2023/06/27 09:24:09;;;;;;;7.78;3.20;;;13.80;99.90;;;;;;5004454;28;20651;-83
2023/06/27 09:26:40;;;;;;;8.18;3.30;;;13.80;99.90;;;;;;5020794;28;20199;-83
2023/06/27 09:29:13;;;;;;;5.97;3.05;;;13.80;99.90;;;;;;5013732;28;20611;-83
2023/06/27 09:31:44;;;;;;;7.13;2.88;;;13.90;99.90;;;;;;5007714;28;20195;-82
2023/06/27 09:34:14;;;;;;;6.90;3.47;;;13.90;99.90;;;;;;5007354;28;20213;-81
2023/06/27 09:36:45;;;;;;;7.47;3.00;;;13.90;99.90;;;;;;5011712;28;20219;-83
2023/06/27 09:39:16;;;;;;;5.70;2.72;;;13.90;99.90;;;;;;5012292;28;20203;-83
2023/06/27 09:41:49;;;;;;;6.35;3.00;;;13.90;99.90;;;;;;5013049;28;20306;-83
2023/06/27 09:44:22;;;;;;;6.40;3.00;;;13.90;99.90;;;;;;5011138;28;20194;-82
2023/06/27 09:46:54;;;;;;;6.82;2.80;;;14.00;99.90;;;;;;5011994;28;20199;-82
2023/06/27 09:49:25;;;;;;;6.47;2.90;;;14.00;99.90;;;;;;5011358;28;20336;-83
2023/06/27 09:51:56;;;;;;;7.53;2.70;;;14.00;99.90;;;;;;5010318;28;20205;-81
2023/06/27 09:54:27;;;;;;;8.13;3.33;;;14.00;99.90;;;;;;5012097;28;20199;-80
2023/06/27 09:56:58;;;;;;;6.45;3.30;;;14.00;99.90;;;;;;5004126;28;20223;-81
2023/06/27 09:59:33;;;;;;;6.13;2.85;;;14.00;99.90;;;;;;5004642;28;20209;-81
2023/06/27 10:02:04;;;;;;;6.35;3.20;;;14.00;99.90;;;;;;5008497;28;20214;-81
2023/06/27 10:04:34;;;;;;;8.27;3.30;;;14.00;99.90;;;;;;5012162;28;20191;-80
2023/06/27 10:07:07;;;;;;;8.82;3.20;;;13.90;99.90;;;;;;5009985;28;20211;-82
2023/06/27 10:09:39;;;;;;;9.02;3.60;;;13.90;99.90;;;;;;4998762;28;20206;-81
2023/06/27 10:12:12;;;;;;;6.95;3.00;;;13.80;99.90;;;;;;5012795;28;20194;-81
2023/06/27 10:14:45;;;;;;;6.40;3.45;;;13.80;99.90;;;;;;5011849;28;20273;-82
2023/06/27 10:17:18;;;;;;;7.70;3.85;;;13.70;99.90;;;;;;5011781;28;20211;-81
2023/06/27 10:19:49;;;;;;;8.70;4.53;;;13.60;99.90;;;;;;5011675;28;20245;-80
2023/06/27 10:22:22;;;;;;;7.20;3.67;;;13.60;99.90;;;;;;5006542;28;20202;-81
2023/06/27 10:24:57;;;;;;;7.40;4.07;;;13.50;99.90;;;;;;5001219;28;20203;-81
2023/06/27 10:27:29;;;;;;;6.97;4.10;;;13.50;99.90;;;;;;5033342;28;20198;-81
2023/06/27 10:30:05;;;;;;;10.23;4.28;;;13.50;99.90;;;;;;5025674;28;20191;-80
2023/06/27 10:32:45;;;;;;;10.02;4.68;;;13.60;99.90;;;;;;5013601;28;20202;-81
2023/06/27 10:35:25;;;;;;;12.50;4.72;;;13.60;99.90;;;;;;5012390;28;20202;-81
2023/06/27 10:38:11;;;;;;;8.82;4.40;;;13.50;99.90;;;;;;5013791;28;20226;-81
2023/06/27 10:41:12;;;;;;;7.50;4.30;;;13.60;99.90;;;;;;5011384;28;20195;-81
2023/06/27 10:43:50;;;;;;;10.32;4.32;;;13.50;99.90;;;;;;4993988;28;20214;-81
2023/06/27 10:46:26;;;;;;;9.90;4.28;;;13.50;99.90;;;;;;5000398;28;20198;-81
2023/06/27 10:49:01;;;;;;;7.45;4.15;;;13.50;99.90;;;;;;5012575;28;20202;-81
2023/06/27 10:51:38;;;;;;;11.88;6.07;;;13.50;99.90;;;;;;5012642;28;20199;-81
2023/06/27 10:54:20;;;;;;;12.35;6.70;;;13.50;99.90;;;;;;5013613;28;20213;-81
2023/06/27 10:56:55;;;;;;;11.77;6.63;;;13.50;99.90;;;;;;5013291;28;20214;-81
2023/06/27 10:59:27;;;;;;;15.10;7.05;;;13.50;99.90;;;;;;5012622;28;20194;-81
2023/06/27 11:02:05;;;;;;;12.95;6.18;;;13.60;99.90;;;;;;5013479;28;20199;-80
2023/06/27 11:04:41;;;;;;;12.60;5.95;;;13.50;99.90;;;;;;5013384;28;20209;-81
2023/06/27 11:07:17;;;;;;;14.98;6.30;;;13.50;99.90;;;;;;5013499;28;20647;-81
2023/06/27 11:09:55;;;;;;;10.57;5.40;;;13.50;99.90;;;;;;5011175;28;20251;-81
2023/06/27 11:12:26;;;;;;;9.13;4.90;;;13.60;99.90;;;;;;5011796;28;20286;-81
2023/06/27 11:14:59;;;;;;;10.75;4.57;;;13.60;99.90;;;;;;5013407;28;20246;-81
2023/06/27 11:17:35;;;;;;;12.00;4.20;;;13.60;99.90;;;;;;5013849;28;20222;-82
2023/06/27 11:20:08;;;;;;;9.48;4.50;;;13.60;99.90;;;;;;5028453;28;20333;-82
2023/06/27 11:22:39;;;;;;;8.30;3.97;;;13.60;99.90;;;;;;5010402;28;20231;-81
2023/06/27 11:25:16;;;;;;;9.77;4.25;;;13.60;99.90;;;;;;5013009;28;20202;-82
2023/06/27 11:27:47;;;;;;;7.32;3.67;;;13.60;99.90;;;;;;5011508;28;20202;-81
2023/06/27 11:30:23;;;;;;;6.10;3.22;;;13.70;99.90;;;;;;5013276;28;20207;-81
2023/06/27 11:32:58;;;;;;;8.57;3.47;;;13.70;99.90;;;;;;5013299;28;20536;-81
2023/06/27 11:35:29;;;;;;;6.65;3.42;;;13.70;99.90;;;;;;5013088;28;20201;-82
2023/06/27 11:38:00;;;;;;;7.13;3.65;;;13.70;99.90;;;;;;5012205;28;20273;-81
2023/06/27 11:40:32;;;;;;;7.15;3.60;;;13.70;99.90;;;;;;5012985;28;20191;-81
2023/06/27 11:43:07;;;;;;;9.57;4.13;;;13.70;99.90;;;;;;5012433;28;20663;-81
2023/06/27 11:45:40;;;;;;;8.13;4.03;;;13.70;99.90;;;;;;5009069;28;20210;-81
2023/06/27 11:48:12;;;;;;;7.60;3.80;;;13.70;99.90;;;;;;5014043;28;20199;-81
2023/06/27 11:51:01;;;;;;;5.80;3.53;;;13.70;99.90;;;;;;5016669;28;20198;-81
2023/06/27 11:53:33;;;;;;;8.35;3.70;;;13.70;99.90;;;;;;5016408;28;20281;-81
2023/06/27 11:56:03;;;;;;;7.75;3.80;;;13.60;99.90;;;;;;5014511;28;20210;-81
2023/06/27 11:58:35;;;;;;;6.72;3.65;;;13.60;99.90;;;;;;5013335;28;20265;-80
2023/06/27 12:01:13;;;;;;;7.20;3.65;;;13.60;99.90;;;;;;5016663;28;20194;-82
2023/06/27 12:03:50;;;;;;;6.82;3.40;;;13.50;99.90;;;;;;5016652;28;20194;-80
2023/06/27 12:06:28;;;;;;;5.35;2.70;;;13.50;99.90;;;;;;5016521;28;20245;-79
2023/06/27 12:09:00;;;;;;;7.28;2.53;;;13.50;99.90;;;;;;5016300;28;20209;-79
2023/06/27 12:11:34;;;;;;;8.65;2.30;;;13.50;99.90;;;;;;5012849;28;20195;-79
2023/06/27 12:14:05;;;;;;;4.28;2.10;;;13.60;99.90;;;;;;5012186;28;20222;-79
2023/06/27 12:16:36;;;;;;;5.30;2.13;;;13.60;99.90;;;;;;5013764;28;20202;-79
2023/06/27 12:19:10;;;;;;;6.97;2.40;;;13.60;99.90;;;;;;5014002;28;20294;-79
2023/06/27 12:21:42;;;;;;;5.47;2.05;;;13.70;99.90;;;;;;5012853;28;20227;-80
2023/06/27 12:24:13;;;;;;;4.13;1.90;;;13.70;99.90;;;;;;5014791;28;20548;-80
2023/06/27 12:26:45;;;;;;;7.18;2.10;;;13.70;99.90;;;;;;5015078;28;20195;-80
2023/06/27 12:29:16;;;;;;;3.83;1.80;;;13.70;99.90;;;;;;5014081;28;20655;-81
2023/06/27 12:31:46;;;;;;;4.85;1.90;;;13.70;99.90;;;;;;5014982;28;20682;-81
2023/06/27 12:34:19;;;;;;;5.18;1.67;;;13.60;99.90;;;;;;5014599;28;20683;-80
2023/06/27 12:36:50;;;;;;;3.22;1.50;;;13.60;99.90;;;;;;5014943;28;20235;-81
2023/06/27 12:39:20;;;;;;;4.88;1.60;;;13.60;99.90;;;;;;5014075;28;20227;-81
2023/06/27 12:41:51;;;;;;;4.45;1.70;;;13.60;99.90;;;;;;5012588;28;20209;-80
2023/06/27 12:44:22;;;;;;;3.97;1.38;;;13.60;99.90;;;;;;5014969;28;20219;-82
2023/06/27 12:46:53;;;;;;;3.13;1.58;;;13.60;99.90;;;;;;5015032;28;20199;-81
2023/06/27 12:49:25;;;;;;;5.00;1.73;;;13.60;99.90;;;;;;5011158;28;20204;-81
2023/06/27 12:51:57;;;;;;;5.03;1.60;;;13.50;99.90;;;;;;5006400;28;20191;-82
2023/06/27 12:54:28;;;;;;;3.75;1.70;;;13.60;99.90;;;;;;5010220;28;20207;-81
2023/06/27 12:56:59;;;;;;;3.47;1.60;;;13.50;99.90;;;;;;5012547;28;20225;-81
2023/06/27 12:59:30;;;;;;;5.65;2.00;;;13.50;99.90;;;;;;5013833;28;20219;-81
2023/06/27 13:02:00;;;;;;;3.92;1.52;;;13.50;99.90;;;;;;5012006;28;20203;-81
2023/06/27 13:04:33;;;;;;;4.05;1.33;;;13.50;99.90;;;;;;5014489;28;20194;-82
2023/06/27 13:07:04;;;;;;;5.65;1.60;;;13.60;99.90;;;;;;5012952;28;20199;-80
2023/06/27 13:09:35;;;;;;;5.38;1.50;;;13.60;99.90;;;;;;5009198;28;20199;-81